createdAt,value
2022-11-27T00:01:35.311Z,99323.84
2022-11-27T00:04:02.660Z,99322.94
2022-11-27T00:06:32.037Z,99321.50
2022-11-27T00:09:01.820Z,99316.50
2022-11-27T00:11:31.606Z,99318.31
2022-11-27T00:14:00.364Z,99315.72
2022-11-27T00:16:29.179Z,99313.94
2022-11-27T00:18:56.659Z,99318.13
2022-11-27T00:21:29.465Z,99318.91
2022-11-27T00:24:00.307Z,99316.13
2022-11-27T00:26:34.464Z,99318.66
2022-11-27T00:29:05.873Z,99320.31
2022-11-27T00:31:35.011Z,99323.66
2022-11-27T00:34:06.110Z,99321.13
2022-11-27T00:36:34.939Z,99319.44
2022-11-27T00:39:03.661Z,99328.00
2022-11-27T00:41:31.564Z,99315.81
2022-11-27T00:43:59.267Z,99321.06
2022-11-27T00:46:33.071Z,99311.47
2022-11-27T00:49:04.279Z,99312.56
2022-11-27T00:51:32.763Z,99317.16
2022-11-27T00:54:00.079Z,99313.78
2022-11-27T00:56:32.396Z,99310.22
2022-11-27T00:59:00.571Z,99311.97
2022-11-27T01:01:34.723Z,99316.28
2022-11-27T01:04:04.687Z,99323.84
2022-11-27T01:06:32.677Z,99314.25
2022-11-27T01:09:00.974Z,99315.03
2022-11-27T01:11:31.958Z,99321.97
2022-11-27T01:14:04.700Z,99318.59
2022-11-27T01:16:34.174Z,99323.13
2022-11-27T01:19:03.749Z,99321.81
2022-11-27T01:21:34.315Z,99314.38
2022-11-27T01:24:05.188Z,99328.22
2022-11-27T01:26:32.471Z,99315.16
2022-11-27T01:29:00.605Z,99310.81
2022-11-27T01:31:31.845Z,99308.16
2022-11-27T01:34:09.194Z,99305.81
2022-11-27T01:36:36.766Z,99310.94
2022-11-27T01:39:05.619Z,99303.09
2022-11-27T01:41:39.836Z,99308.00
2022-11-27T01:44:25.626Z,99310.34
2022-11-27T01:47:18.041Z,99315.72
2022-11-27T01:49:52.309Z,99316.38
2022-11-27T01:52:27.736Z,99321.50
2022-11-27T01:55:19.288Z,99320.53
2022-11-27T01:57:53.831Z,99317.88
2022-11-27T02:00:22.296Z,99303.25
2022-11-27T02:02:50.059Z,99311.00
2022-11-27T02:05:24.016Z,99318.66
2022-11-27T02:07:53.665Z,99316.91
2022-11-27T02:10:28.121Z,99321.06
2022-11-27T02:13:14.605Z,99320.28
2022-11-27T02:16:08.558Z,99317.28
2022-11-27T02:19:04.532Z,99320.28
2022-11-27T02:21:44.011Z,99314.19
2022-11-27T02:25:02.779Z,99309.19
2022-11-27T02:27:53.512Z,99314.28
2022-11-27T02:30:20.914Z,99315.94
2022-11-27T02:33:00.131Z,99315.03
2022-11-27T02:35:43.946Z,99315.84
2022-11-27T02:38:23.843Z,99314.44
2022-11-27T02:41:07.734Z,99312.81
2022-11-27T02:43:44.534Z,99317.22
2022-11-27T02:46:14.192Z,99324.09
2022-11-27T02:48:52.129Z,99323.19
2022-11-27T02:51:28.514Z,99325.69
2022-11-27T02:54:02.843Z,99322.06
2022-11-27T02:56:33.897Z,99327.72
2022-11-27T02:59:07.669Z,99328.47
2022-11-27T03:01:43.041Z,99324.09
2022-11-27T03:04:21.109Z,99333.34
2022-11-27T03:06:55.898Z,99328.28
2022-11-27T03:09:38.959Z,99328.22
2022-11-27T03:12:10.356Z,99326.41
2022-11-27T03:14:42.309Z,99328.81
2022-11-27T03:17:52.303Z,99333.16
2022-11-27T03:20:25.686Z,99333.03
2022-11-27T03:22:57.093Z,99336.47
2022-11-27T03:25:25.665Z,99334.72
2022-11-27T03:28:04.845Z,99332.19
2022-11-27T03:30:32.496Z,99332.19
2022-11-27T03:33:01.521Z,99328.75
2022-11-27T03:35:29.943Z,99334.72
2022-11-27T03:37:57.361Z,99332.25
2022-11-27T03:41:04.760Z,99321.22
2022-11-27T03:43:46.802Z,99318.75
2022-11-27T03:46:32.055Z,99322.59
2022-11-27T03:49:24.694Z,99321.63
2022-11-27T03:52:16.174Z,99327.56
2022-11-27T03:55:08.496Z,99328.50
2022-11-27T03:58:00.918Z,99328.56
2022-11-27T04:00:38.344Z,99318.97
2022-11-27T04:03:10.411Z,99324.28
2022-11-27T04:05:38.148Z,99322.66
2022-11-27T04:08:06.167Z,99315.16
2022-11-27T04:10:33.379Z,99323.66
2022-11-27T04:13:00.874Z,99326.16
2022-11-27T04:15:28.018Z,99315.03
2022-11-27T04:17:55.539Z,99320.97
2022-11-27T04:20:22.799Z,99321.97
2022-11-27T04:22:50.457Z,99325.47
2022-11-27T04:25:17.998Z,99315.03
2022-11-27T04:27:46.137Z,99317.22
2022-11-27T04:30:14.327Z,99321.31
2022-11-27T04:32:42.260Z,99322.09
2022-11-27T04:35:10.654Z,99322.16
2022-11-27T04:37:38.246Z,99319.56
2022-11-27T04:40:06.860Z,99321.22
2022-11-27T04:42:34.414Z,99311.66
2022-11-27T04:45:01.652Z,99322.78
2022-11-27T04:47:29.106Z,99315.75
2022-11-27T04:49:56.315Z,99319.38
2022-11-27T04:52:23.835Z,99321.06
2022-11-27T04:54:55.392Z,99322.22
2022-11-27T04:57:26.140Z,99319.56
2022-11-27T04:59:53.311Z,99322.28
2022-11-27T05:02:20.866Z,99316.13
2022-11-27T05:04:48.125Z,99324.06
2022-11-27T05:07:15.719Z,99325.94
2022-11-27T05:09:43.033Z,99324.19
2022-11-27T05:12:10.456Z,99325.25
2022-11-27T05:14:37.941Z,99323.41
2022-11-27T05:17:05.821Z,99320.88
2022-11-27T05:19:33.167Z,99322.56
2022-11-27T05:22:00.727Z,99320.00
2022-11-27T05:24:29.605Z,99317.31
2022-11-27T05:26:57.706Z,99314.78
2022-11-27T05:29:26.010Z,99313.88
2022-11-27T05:31:54.058Z,99316.38
2022-11-27T05:34:21.716Z,99318.91
2022-11-27T05:36:49.287Z,99310.19
2022-11-27T05:39:16.721Z,99319.84
2022-11-27T05:41:44.787Z,99316.31
2022-11-27T05:44:15.067Z,99308.81
2022-11-27T05:46:44.021Z,99306.22
2022-11-27T05:49:16.221Z,99302.84
2022-11-27T05:51:50.750Z,99296.81
2022-11-27T05:54:19.587Z,99303.06
2022-11-27T05:56:47.127Z,99299.78
2022-11-27T05:59:15.176Z,99300.81
2022-11-27T06:01:43.502Z,99301.03
2022-11-27T06:04:10.816Z,99303.78
2022-11-27T06:06:38.359Z,99303.97
2022-11-27T06:09:10.844Z,99300.63
2022-11-27T06:11:41.348Z,99303.63
2022-11-27T06:14:11.804Z,99296.28
2022-11-27T06:16:39.415Z,99298.97
2022-11-27T06:19:07.571Z,99307.69
2022-11-27T06:21:35.183Z,99306.88
2022-11-27T06:24:03.310Z,99311.41
2022-11-27T06:26:33.747Z,99304.44
2022-11-27T06:29:01.915Z,99310.63
2022-11-27T06:31:32.958Z,99313.97
2022-11-27T06:34:00.980Z,99309.53
2022-11-27T06:36:34.367Z,99313.06
2022-11-27T06:39:04.176Z,99316.59
2022-11-27T06:41:32.574Z,99318.00
2022-11-27T06:44:01.552Z,99317.63
2022-11-27T06:46:30.262Z,99323.41
2022-11-27T06:48:58.333Z,99324.03
2022-11-27T06:51:29.270Z,99322.34
2022-11-27T06:53:57.084Z,99316.31
2022-11-27T06:56:27.230Z,99311.97
2022-11-27T06:58:58.746Z,99320.41
2022-11-27T07:01:29.457Z,99326.25
2022-11-27T07:03:57.831Z,99332.19
2022-11-27T07:06:27.452Z,99326.06
2022-11-27T07:08:56.054Z,99331.13
2022-11-27T07:11:27.562Z,99330.84
2022-11-27T07:13:58.857Z,99333.28
2022-11-27T07:16:29.600Z,99336.47
2022-11-27T07:19:04.834Z,99330.50
2022-11-27T07:21:33.616Z,99329.91
2022-11-27T07:24:01.323Z,99330.44
2022-11-27T07:26:30.648Z,99333.91
2022-11-27T07:28:58.362Z,99340.88
2022-11-27T07:31:30.330Z,99342.28
2022-11-27T07:33:58.486Z,99349.09
2022-11-27T07:36:31.295Z,99344.94
2022-11-27T07:38:58.650Z,99340.47
2022-11-27T07:41:32.273Z,99340.19
2022-11-27T07:44:01.820Z,99338.50
2022-11-27T07:46:30.529Z,99330.59
2022-11-27T07:48:58.319Z,99337.22
2022-11-27T07:51:26.098Z,99338.06
2022-11-27T07:53:53.499Z,99334.44
2022-11-27T07:56:21.663Z,99346.34
2022-11-27T07:58:49.371Z,99339.94
2022-11-27T08:01:19.840Z,99329.56
2022-11-27T08:03:47.429Z,99335.41
2022-11-27T08:06:22.018Z,99333.34
2022-11-27T08:08:50.819Z,99332.41
2022-11-27T08:11:29.960Z,99334.84
2022-11-27T08:14:01.443Z,99330.44
2022-11-27T08:16:30.224Z,99336.28
2022-11-27T08:18:58.222Z,99335.34
2022-11-27T08:21:27.095Z,99337.06
2022-11-27T08:23:55.065Z,99340.34
2022-11-27T08:26:22.693Z,99339.56
2022-11-27T08:28:52.958Z,99344.00
2022-11-27T08:31:21.553Z,99343.84
2022-11-27T08:33:49.181Z,99347.38
2022-11-27T08:36:18.258Z,99343.00
2022-11-27T08:38:47.176Z,99337.16
2022-11-27T08:41:15.198Z,99337.31
2022-11-27T08:43:42.446Z,99342.88
2022-11-27T08:46:11.398Z,99335.88
2022-11-27T08:48:38.983Z,99333.88
2022-11-27T08:51:11.149Z,99340.34
2022-11-27T08:53:38.913Z,99340.81
2022-11-27T08:56:11.289Z,99341.22
2022-11-27T08:58:41.074Z,99343.44
2022-11-27T09:01:21.623Z,99339.47
2022-11-27T09:03:49.617Z,99345.88
2022-11-27T09:06:21.705Z,99339.94
2022-11-27T09:08:49.969Z,99346.56
2022-11-27T09:11:20.570Z,99346.13
2022-11-27T09:13:48.746Z,99352.00
2022-11-27T09:16:20.447Z,99341.06
2022-11-27T09:18:52.001Z,99337.03
2022-11-27T09:21:22.998Z,99340.75
2022-11-27T09:23:54.990Z,99333.34
2022-11-27T09:26:24.083Z,99334.25
2022-11-27T09:28:53.003Z,99334.50
2022-11-27T09:31:22.986Z,99342.16
2022-11-27T09:33:50.793Z,99345.31
2022-11-27T09:36:23.132Z,99337.44
2022-11-27T09:38:50.892Z,99336.66
2022-11-27T09:41:47.304Z,99335.03
2022-11-27T09:44:43.197Z,99334.75
2022-11-27T09:47:20.467Z,99326.03
2022-11-27T09:50:13.311Z,99334.69
2022-11-27T09:52:54.893Z,99333.56
2022-11-27T09:55:37.904Z,99330.19
2022-11-27T09:58:22.402Z,99339.84
2022-11-27T10:00:49.873Z,99336.28
2022-11-27T10:03:28.273Z,99336.34
2022-11-27T10:06:24.274Z,99328.91
2022-11-27T10:09:56.112Z,99315.31
2022-11-27T10:12:44.692Z,99317.94
2022-11-27T10:15:42.789Z,99302.31
2022-11-27T10:18:22.159Z,99305.56
2022-11-27T10:20:58.475Z,99310.50
2022-11-27T10:24:00.339Z,99303.72
2022-11-27T10:26:55.093Z,99307.00
2022-11-27T10:29:38.008Z,99302.22
2022-11-27T10:32:53.494Z,99298.53
2022-11-27T10:35:17.828Z,99301.41
2022-11-27T10:38:23.481Z,99292.88
2022-11-27T10:40:54.095Z,99288.22
2022-11-27T10:43:25.293Z,99286.75
2022-11-27T10:46:17.149Z,99283.81
2022-11-27T10:48:45.320Z,99285.59
2022-11-27T10:51:22.745Z,99285.53
2022-11-27T10:53:54.721Z,99275.72
2022-11-27T10:57:15.793Z,99278.38
2022-11-27T11:00:19.891Z,99271.59
2022-11-27T11:02:47.380Z,99261.78
2022-11-27T11:05:45.572Z,99259.66
2022-11-27T11:08:21.679Z,99251.63
2022-11-27T11:11:04.795Z,99242.22
2022-11-27T11:13:40.209Z,99245.63
2022-11-27T11:16:24.352Z,99256.28
2022-11-27T11:18:55.790Z,99256.03
2022-11-27T11:21:30.118Z,99260.56
2022-11-27T11:24:13.801Z,99248.16
2022-11-27T11:26:49.259Z,99261.72
2022-11-27T11:29:54.130Z,99258.72
2022-11-27T11:32:21.601Z,99258.44
2022-11-27T11:35:03.049Z,99257.50
2022-11-27T11:37:44.779Z,99256.34
2022-11-27T11:40:16.461Z,99248.19
2022-11-27T11:43:04.369Z,99242.22
2022-11-27T11:45:35.030Z,99239.13
2022-11-27T11:48:27.617Z,99236.44
2022-11-27T11:51:23.763Z,99230.69
2022-11-27T11:54:41.010Z,99222.81
2022-11-27T11:57:46.623Z,99225.25
2022-11-27T12:00:18.721Z,99223.91
2022-11-27T12:02:46.717Z,99224.19
2022-11-27T12:06:10.674Z,99219.50
2022-11-27T12:08:59.739Z,99218.84
2022-11-27T12:12:17.308Z,99216.41
2022-11-27T12:14:59.821Z,99217.66
2022-11-27T12:18:06.336Z,99209.41
2022-11-27T12:20:58.429Z,99216.75
2022-11-27T12:24:09.347Z,99211.94
2022-11-27T12:26:48.439Z,99201.25
2022-11-27T12:29:54.629Z,99199.44
2022-11-27T12:32:43.988Z,99193.69
2022-11-27T12:35:34.635Z,99192.78
2022-11-27T12:38:45.353Z,99198.31
2022-11-27T12:41:42.848Z,99192.88
2022-11-27T12:44:47.413Z,99197.16
2022-11-27T12:47:28.393Z,99195.59
2022-11-27T12:50:14.893Z,99202.38
2022-11-27T12:52:54.405Z,99194.59
2022-11-27T12:55:27.575Z,99196.53
2022-11-27T12:58:04.925Z,99201.84
2022-11-27T13:00:40.973Z,99199.06
2022-11-27T13:04:02.805Z,99200.25
2022-11-27T13:06:48.614Z,99204.19
2022-11-27T13:09:28.801Z,99204.44
2022-11-27T13:11:57.081Z,99204.00
2022-11-27T13:14:28.175Z,99205.25
2022-11-27T13:17:09.807Z,99201.25
2022-11-27T13:19:49.747Z,99209.91
2022-11-27T13:22:34.766Z,99205.91
2022-11-27T13:25:03.895Z,99209.25
2022-11-27T13:27:37.325Z,99209.38
2022-11-27T13:30:09.923Z,99203.09
2022-11-27T13:32:43.786Z,99198.19
2022-11-27T13:35:42.104Z,99203.41
2022-11-27T13:38:24.048Z,99202.69
2022-11-27T13:40:58.657Z,99194.47
2022-11-27T13:43:45.471Z,99201.00
2022-11-27T13:46:25.203Z,99205.75
2022-11-27T13:49:05.979Z,99197.09
2022-11-27T13:51:37.995Z,99196.47
2022-11-27T13:54:12.704Z,99200.88
2022-11-27T13:56:41.109Z,99195.22
2022-11-27T13:59:25.877Z,99186.41
2022-11-27T14:02:00.533Z,99194.66
2022-11-27T14:04:31.068Z,99194.38
2022-11-27T14:07:11.849Z,99189.81
2022-11-27T14:09:54.244Z,99197.69
2022-11-27T14:12:30.778Z,99185.09
2022-11-27T14:15:18.099Z,99185.38
2022-11-27T14:17:50.101Z,99189.09
2022-11-27T14:20:17.585Z,99192.72
2022-11-27T14:23:10.049Z,99191.06
2022-11-27T14:25:36.603Z,99195.00
2022-11-27T14:28:15.942Z,99193.38
2022-11-27T14:30:57.264Z,99195.41
2022-11-27T14:33:31.119Z,99188.94
2022-11-27T14:36:06.055Z,99190.69
2022-11-27T14:38:35.478Z,99184.06
2022-11-27T14:41:18.279Z,99187.41
2022-11-27T14:43:46.197Z,99184.13
2022-11-27T14:46:22.200Z,99189.63
2022-11-27T14:48:56.420Z,99181.50
2022-11-27T14:51:31.053Z,99181.84
2022-11-27T14:54:09.929Z,99189.81
2022-11-27T14:56:43.391Z,99183.81
2022-11-27T14:59:18.183Z,99182.34
2022-11-27T15:01:57.734Z,99180.59
2022-11-27T15:04:38.780Z,99189.50
2022-11-27T15:07:25.172Z,99180.91
2022-11-27T15:09:56.771Z,99181.75
2022-11-27T15:12:48.349Z,99182.72
2022-11-27T15:15:22.719Z,99169.25
2022-11-27T15:17:56.522Z,99165.81
2022-11-27T15:20:37.385Z,99167.44
2022-11-27T15:23:14.369Z,99157.84
2022-11-27T15:25:46.451Z,99155.31
2022-11-27T15:28:32.577Z,99153.31
2022-11-27T15:31:00.414Z,99155.63
2022-11-27T15:33:34.258Z,99155.09
2022-11-27T15:36:20.961Z,99151.41
2022-11-27T15:38:51.089Z,99150.97
2022-11-27T15:41:30.283Z,99141.72
2022-11-27T15:43:57.592Z,99143.44
2022-11-27T15:46:33.045Z,99132.44
2022-11-27T15:49:00.345Z,99131.88
2022-11-27T15:51:29.225Z,99142.56
2022-11-27T15:54:02.769Z,99146.34
2022-11-27T15:56:30.369Z,99135.50
2022-11-27T15:58:57.624Z,99130.13
2022-11-27T16:01:25.179Z,99137.56
2022-11-27T16:03:52.432Z,99135.53
2022-11-27T16:06:23.468Z,99135.47
2022-11-27T16:09:01.733Z,99131.25
2022-11-27T16:11:31.421Z,99139.47
2022-11-27T16:13:58.941Z,99129.16
2022-11-27T16:16:27.091Z,99123.75
2022-11-27T16:19:01.240Z,99126.34
2022-11-27T16:21:30.343Z,99124.25
2022-11-27T16:24:04.550Z,99119.25
2022-11-27T16:26:32.842Z,99110.28
2022-11-27T16:29:00.507Z,99109.72
2022-11-27T16:31:28.822Z,99114.41
2022-11-27T16:33:56.904Z,99115.59
2022-11-27T16:36:24.660Z,99115.22
2022-11-27T16:38:54.512Z,99109.19
2022-11-27T16:41:23.453Z,99105.66
2022-11-27T16:43:53.955Z,99101.66
2022-11-27T16:46:27.956Z,99104.59
2022-11-27T16:48:58.920Z,99107.56
2022-11-27T16:51:32.167Z,99106.34
2022-11-27T16:54:05.703Z,99107.41
2022-11-27T16:56:35.170Z,99096.84
2022-11-27T16:59:03.531Z,99093.16
2022-11-27T17:01:35.847Z,99095.53
2022-11-27T17:04:09.251Z,99098.25
2022-11-27T17:06:39.172Z,99094.00
2022-11-27T17:09:08.667Z,99087.13
2022-11-27T17:11:41.097Z,99089.97
2022-11-27T17:14:09.824Z,99091.88
2022-11-27T17:16:41.342Z,99089.44
2022-11-27T17:19:13.548Z,99086.28
2022-11-27T17:21:42.174Z,99088.50
2022-11-27T17:24:15.957Z,99082.78
2022-11-27T17:26:45.959Z,99074.81
2022-11-27T17:29:17.894Z,99083.63
2022-11-27T17:31:45.646Z,99074.31
2022-11-27T17:34:15.601Z,99074.50
2022-11-27T17:36:45.171Z,99072.00
2022-11-27T17:39:15.719Z,99079.34
2022-11-27T17:41:45.256Z,99072.28
2022-11-27T17:44:13.016Z,99071.44
2022-11-27T17:46:40.918Z,99070.78
2022-11-27T17:49:08.531Z,99067.41
2022-11-27T17:51:38.776Z,99064.88
2022-11-27T17:54:08.014Z,99065.66
2022-11-27T17:56:35.662Z,99069.88
2022-11-27T17:59:03.419Z,99063.91
2022-11-27T18:01:33.826Z,99064.75
2022-11-27T18:04:03.987Z,99066.56
2022-11-27T18:06:32.507Z,99064.88
2022-11-27T18:09:00.153Z,99064.09
2022-11-27T18:11:32.082Z,99066.66
2022-11-27T18:13:59.934Z,99060.75
2022-11-27T18:16:37.696Z,99067.78
2022-11-27T18:19:11.249Z,99061.78
2022-11-27T18:21:39.877Z,99058.38
2022-11-27T18:24:23.041Z,99062.78
2022-11-27T18:27:07.652Z,99061.78
2022-11-27T18:29:42.517Z,99057.34
2022-11-27T18:32:12.947Z,99061.53
2022-11-27T18:34:41.515Z,99057.91
2022-11-27T18:37:10.893Z,99052.56
2022-11-27T18:39:40.405Z,99051.47
2022-11-27T18:42:08.472Z,99045.34
2022-11-27T18:44:44.302Z,99038.53
2022-11-27T18:47:15.799Z,99043.72
2022-11-27T18:49:43.684Z,99037.81
2022-11-27T18:52:11.814Z,99026.84
2022-11-27T18:54:39.538Z,99030.44
2022-11-27T18:57:07.240Z,99027.91
2022-11-27T18:59:35.261Z,99023.56
2022-11-27T19:02:04.530Z,99016.88
2022-11-27T19:04:34.469Z,99008.63
2022-11-27T19:07:02.019Z,99006.94
2022-11-27T19:09:29.440Z,99013.78
2022-11-27T19:11:57.773Z,99013.00
2022-11-27T19:14:25.241Z,99017.16
2022-11-27T19:16:52.983Z,99009.41
2022-11-27T19:22:09.486Z,98997.59
2022-11-27T19:24:38.135Z,98981.41
2022-11-27T19:27:05.768Z,98983.34
2022-11-27T19:29:33.178Z,98989.38
2022-11-27T19:32:03.238Z,98983.63
2022-11-27T19:34:30.782Z,98986.38
2022-11-27T19:36:58.554Z,98971.97
2022-11-27T19:39:27.362Z,98966.06
2022-11-27T19:41:55.412Z,98974.69
2022-11-27T19:44:22.628Z,98976.25
2022-11-27T19:46:50.188Z,98975.72
2022-11-27T19:49:18.243Z,98965.81
2022-11-27T19:51:46.248Z,98966.78
2022-11-27T19:54:15.758Z,98964.63
2022-11-27T19:56:43.666Z,98961.63
2022-11-27T19:59:12.600Z,98966.91
2022-11-27T20:01:40.849Z,98970.53
2022-11-27T20:04:11.745Z,98974.38
2022-11-27T20:06:39.896Z,98961.13
2022-11-27T20:09:08.045Z,98963.47
2022-11-27T20:11:36.484Z,98958.31
2022-11-27T20:14:05.695Z,98966.09
2022-11-27T20:16:36.249Z,98964.47
2022-11-27T20:19:06.136Z,98970.09
2022-11-27T20:21:34.024Z,98970.94
2022-11-27T20:24:02.251Z,98969.44
2022-11-27T20:26:30.851Z,98965.16
2022-11-27T20:28:58.934Z,98971.00
2022-11-27T20:31:31.927Z,98970.47
2022-11-27T20:34:03.472Z,98968.72
2022-11-27T20:36:38.329Z,98968.63
2022-11-27T20:39:06.435Z,98974.59
2022-11-27T20:41:34.012Z,98960.91
2022-11-27T20:44:04.772Z,98960.13
2022-11-27T20:46:33.517Z,98967.84
2022-11-27T20:49:01.292Z,98966.06
2022-11-27T20:51:34.160Z,98960.13
2022-11-27T20:54:03.208Z,98966.06
2022-11-27T20:56:31.635Z,98955.78
2022-11-27T20:58:59.883Z,98955.78
2022-11-27T21:01:34.101Z,98958.31
2022-11-27T21:04:09.471Z,98957.44
2022-11-27T21:06:43.894Z,98951.38
2022-11-27T21:09:13.984Z,98949.78
2022-11-27T21:11:42.845Z,98951.53
2022-11-27T21:14:13.466Z,98942.88
2022-11-27T21:16:48.272Z,98950.63
2022-11-27T21:19:26.940Z,98950.72
2022-11-27T21:21:55.580Z,98951.50
2022-11-27T21:24:25.849Z,98950.69
2022-11-27T21:26:53.564Z,98955.13
2022-11-27T21:29:25.578Z,98947.38
2022-11-27T21:31:53.995Z,98949.16
2022-11-27T21:34:21.284Z,98940.56
2022-11-27T21:36:49.330Z,98936.16
2022-11-27T21:39:23.913Z,98932.84
2022-11-27T21:41:55.179Z,98919.75
2022-11-27T21:44:24.170Z,98931.91
2022-11-27T21:46:52.474Z,98924.19
2022-11-27T21:49:21.375Z,98914.69
2022-11-27T21:51:54.175Z,98910.56
2022-11-27T21:54:22.325Z,98907.78
2022-11-27T21:56:53.552Z,98902.16
2022-11-27T21:59:20.935Z,98894.56
2022-11-27T22:01:48.559Z,98884.44
2022-11-27T22:04:16.389Z,98875.00
2022-11-27T22:06:45.272Z,98871.94
2022-11-27T22:09:15.678Z,98860.41
2022-11-27T22:11:46.252Z,98856.84
2022-11-27T22:14:16.177Z,98859.72
2022-11-27T22:16:46.432Z,98859.16
2022-11-27T22:19:15.083Z,98860.13
2022-11-27T22:21:44.657Z,98859.44
2022-11-27T22:24:18.425Z,98852.53
2022-11-27T22:26:48.185Z,98854.47
2022-11-27T22:29:15.764Z,98853.16
2022-11-27T22:31:43.380Z,98850.47
2022-11-27T22:34:10.647Z,98848.59
2022-11-27T22:36:38.708Z,98852.88
2022-11-27T22:39:08.819Z,98854.75
2022-11-27T22:41:40.132Z,98853.97
2022-11-27T22:44:25.487Z,98850.50
2022-11-27T22:46:53.030Z,98852.25
2022-11-27T22:49:20.412Z,98858.13
2022-11-27T22:51:48.182Z,98850.47
2022-11-27T22:54:17.319Z,98860.81
2022-11-27T22:56:45.920Z,98861.44
2022-11-27T23:02:01.667Z,98856.84
2022-11-27T23:04:29.392Z,98849.75
2022-11-27T23:06:56.894Z,98857.22
2022-11-27T23:09:24.351Z,98861.72
2022-11-27T23:11:52.010Z,98854.06
2022-11-27T23:14:19.272Z,98850.47
2022-11-27T23:16:46.794Z,98849.69
2022-11-27T23:19:14.098Z,98848.88
2022-11-27T23:21:42.017Z,98846.59
2022-11-27T23:24:15.312Z,98843.91
2022-11-27T23:26:43.971Z,98847.63
2022-11-27T23:29:11.606Z,98850.38
2022-11-27T23:31:39.356Z,98842.16
2022-11-27T23:34:16.166Z,98844.97
2022-11-27T23:36:44.585Z,98845.06
2022-11-27T23:39:13.546Z,98848.56
2022-11-27T23:41:41.845Z,98839.91
2022-11-27T23:44:09.760Z,98855.28
2022-11-27T23:46:37.308Z,98850.13
2022-11-27T23:49:04.678Z,98846.66
2022-11-27T23:51:33.636Z,98851.91
2022-11-27T23:54:01.891Z,98853.50
2022-11-27T23:56:32.050Z,98846.66
2022-11-27T23:59:00.636Z,98843.81
